Timeline UpdatesTrip UpdatesNews PostsPvt PostsTravel TipsAdmin PostsConv PostsFollowed PostsChat RequestsBlog PostsPNR Posts

Disclaimer
Search
 
 
Thu Apr 17, 2014 00:31:17 ISTHomeTrainsΣChainsAtlasPNRForumGalleryNewsFAQTripsMembersLoginFeedback
No Recent News for this Train
Other Trains in the News **new
Latest...
hauled by WDM-3 of ABOHAR.
Wed Sep 07, 2011 (01:35PM)
⇐ Return Journey: Train# 54757

54758/Shri Ganganagar - Ambala Cantt Passenger (UnReserved)

Aug 28 2013 (5:59PM)
Change Departure Station:
Change Arrival Station:
Post a Train Travel TipPost a Train Travel Tip **new
Post a Comment/Question/Picture/VideoPost a Comment/Question/Picture/Video
Pantry/Catering
✕ NO Pantry Car
✕ NO Catering
RSA - Rake Sharing
Rake/Coach Composition
LOCO-SLR-GEN-GEN-GEN-GEN-GEN-GEN-GEN-SLR; [Informed by: Vicky Shotra in Blog Entry#838076]
Loco
TKD WDP-1 or WDM-3 of LDH/ABR
News    PNR    Forum    Time-Table    Availability    Fare Chart    Map    Arr/Dep History    Trips    Gallery    ΣChains    X/O    Timeline    
Travel Time: 0h 19m    0 halts    Distance: 8 km    Avg Speed: 25 km/hr
Type: Passenger
Zone: NWR/North Western
Departs @ 19:16 (Avg 39m late)
Platform# 2
SMTWTFS
Ambala City/UBC 
Arrives @ 19:35 (Avg 36m late)
Platform# 4
SMTWTFS
Ambala Cantt. Junction/UMB 

0 halts. 0 intermediate Stations between Ambala City and Ambala Cantt. Junction

Show ALL intermediate Stations  Show Old Time-Table

#CodeStation NameX/OArrivesAvgDepartsAvgHaltPFDay#KmSpeedElevZoneAddress
1SGNRShri Ganganagar  -10:45+8--1-319.868178mNWRSri Ganganagar, Rajasthan
2MOPRMohanpura  10:51+1910:53+192m--1-313.074177mNRNational Highway 15, Rajasthan
3FTHFatuhi  11:00+1911:02+182m--1-304.474182mNRNational Highway 15, Rajasthan
4ORKIOrki  11:06+2211:08+222m--1-299.561179mNRNational Highway 15, Rajasthan
5HMKHindumalkoteX  11:15+2211:17+302m--1-292.39181mNRNational Highway 15, Rajasthan
6KTPKKotha Pakki  11:30+3011:32+302m--1-290.456183mNRNational Highway 15, Rajasthan
7BKWABakayanwala  11:36+2411:38+242m--1-286.773184mNRDiwan Khera, Rajasthan
8PJKPanj Kosi  11:43+2411:45+252m--1-280.674186mNRDiwan Khera, Rajasthan
9KLWLKilanwali Punjab  11:50+2511:52+252m--1-274.442186mNRNational Highway 15, Punjab
10ABSAboharX  12:03+2512:05+312m--1-266.743186mNRAbohar, Punjab
11BFEBahawal Basi  12:16+2912:18+292m--1-258.978190mNRNational Highway 15, Punjab
12PKKPakki  12:24+2912:26+292m--1-251.069193mNRNational Highway 15, Punjab
13MOTMalout (1)  12:38+3212:40+342m11-237.256194mNRMalaut, Punjab
14FSRFaqarsar  12:48+2812:50+282m--1-229.831195mNRFakarsar, Punjab
15GDBGiddarbahaX  13:07+2813:09+342m--1-221.039200mNRGiddarbaha, Punjab
16BHXBulluana  13:27+2913:29+292m--1-209.466204mNRBalluana, Punjab
17BWXBahman Diwana  13:35+2313:37+232m--1-202.732206mNRBehman Diwana, Punjab
18BTIBathinda Junction (6)  13:55+2314:10+2115m--1-193.267208mNRBathinda, Punjab
19BTICBathinda Cantt. (1)  14:19+2614:21+262m11-183.247207mNRBathinda, Punjab
20BCUBhuchchu (1)  14:30+2814:32+292m11-176.256213mNRBhucho Mandi, Punjab
21LHMLehra Muhabbat (1)  14:40+2914:42+302m11-168.676216mNRNational Highway 64, Punjab
22PULRampura Phul (1)  14:48+3314:50+362m11-161.162220mNRRampura Phul, Punjab
23JHKJethuke (1)  14:58+4015:00+402m11-152.859220mNRJettuke, Punjab
24TAPATapa (1)  15:05+4015:07+412m11-147.955223mNRTapa Mandi, Punjab
25GUNSGhunas (1)  15:13+4115:15+412m11-142.457223mNRGhunas Railway Station, Punjab
26HYAHadiaya (1)  15:23+4115:24+411m11-134.860230mNRKhudi Rd, Punjab
27BNNBarnala (1)X  15:30+4315:32+472m11-128.862233mNRBarnala, Punjab
28SEQSekha (1)  15:41+4815:43+502m11-119.571237mNROff Rd, Punjab
29ALALAlal (1)  15:50+5315:52+542m--1-111.260237mNRMullowal, Punjab
30DUIDhuri Junction (4)  16:05+5716:30+4325m--1-98.170248mNRDhuri, Punjab
31KLSXKaulseri (1)  16:36+4716:38+472m11-91.155247mNRSherpur Sodhian, Punjab
32CTWChhintanwala (1)  16:45+4916:47+492m11-84.776247mNRSherpur Sodhian Link Rd, Punjab
33KKRLKakrala (1)  16:53+5116:55+512m11-77.071246mNRNabha, Punjab
34NBANabha (1)  17:00+5117:02+562m11-71.132250mNRNabha, Punjab
35DBNDhablan (1)X  17:27+4617:29+492m11-57.930253mNRGurudwara Ishar Darbar Rd, Punjab
36PTEPatiala Cantt. (1)  17:45+4217:47+422m11-49.946254mNRPatiala, Punjab
37PTAPatiala (4)  17:53+4117:55+472m21-45.327256mNRPatiala, Punjab
38DOCDaun Kalan (1)  18:14+3918:16+402m11-36.738257mNRNational Highway 64, Punjab
39KLIKauli (1)  18:24+4018:25+441m11-31.737266mNRNational Highway 64, Punjab
40RPJRajpura Junction (3)X  18:43+3918:45+412m31-20.551272mNRNH-1, Punjab
41SMUSambhu (2)X  18:58+4119:00+412m11-9.541270mNRNH-1, Punjab
42UBC»Ambala City (3)»  19:14+3519:16+392m210.024273mNRNH-1, Haryana
43UMB•Ambala Cantt. Junction (7)•  19:35+36-417.6-278mNRAmbala 133001, Haryana
Scroll to Top
Scroll to Bottom